Time;durP1;ratioP1;P1;durP2;ratioP2;P2;SDS_P1;SDS_P2;PMS_P1;PMS_P2;Temp;Humidity;BMP_temperature;BMP_pressure;BME280_temperature;BME280_humidity;BME280_pressure;Samples;Min_cycle;Max_cycle;Signal;HPM_P1;HPM_P2
2022/09/11 00:01:38;;;;;;;5.10;4.90;;;16.20;1.00;;;;;;5028648;28;20519;-79
2022/09/11 00:04:07;;;;;;;5.20;5.10;;;16.30;99.90;;;;;;5030204;28;20444;-81
2022/09/11 00:06:35;;;;;;;5.20;5.00;;;16.20;99.90;;;;;;5032070;28;21018;-80
2022/09/11 00:09:05;;;;;;;5.40;5.30;;;16.20;99.90;;;;;;5029839;28;20459;-80
2022/09/11 00:11:35;;;;;;;5.90;5.70;;;16.30;99.90;;;;;;5027601;28;20517;-80
2022/09/11 00:14:04;;;;;;;5.30;5.20;;;16.30;99.90;;;;;;5030045;28;20981;-80
2022/09/11 00:16:36;;;;;;;6.00;5.70;;;16.30;99.90;;;;;;5027657;28;20947;-78
2022/09/11 00:19:06;;;;;;;5.90;5.70;;;16.40;99.90;;;;;;5027095;28;21020;-79
2022/09/11 00:21:35;;;;;;;5.40;5.20;;;16.40;1.00;;;;;;5027599;28;20486;-79
2022/09/11 00:24:04;;;;;;;5.37;5.20;;;16.30;43.90;;;;;;5026497;28;20459;-78
2022/09/11 00:26:32;;;;;;;6.07;5.60;;;16.30;56.40;;;;;;5029410;28;20570;-79
2022/09/11 00:29:02;;;;;;;5.33;5.20;;;16.30;99.40;;;;;;5028189;28;20513;-80
2022/09/11 00:31:33;;;;;;;5.63;5.47;;;16.40;20.50;;;;;;5030278;28;20486;-79
2022/09/11 00:34:01;;;;;;;5.87;5.60;;;16.30;99.90;;;;;;5030554;28;20458;-79
2022/09/11 00:36:31;;;;;;;5.77;5.57;;;16.40;1.00;;;;;;5028470;28;20456;-80
2022/09/11 00:39:00;;;;;;;5.87;5.67;;;16.30;1.00;;;;;;5030052;28;20538;-80
2022/09/11 00:41:30;;;;;;;6.13;5.93;;;16.30;1.00;;;;;;5027711;28;20521;-79
2022/09/11 00:44:01;;;;;;;5.97;5.60;;;16.40;1.00;;;;;;5028922;28;20443;-80
2022/09/11 00:46:37;;;;;;;6.00;5.60;;;16.30;1.00;;;;;;5042447;28;20482;-81
2022/09/11 00:49:16;;;;;;;5.90;5.70;;;16.30;95.80;;;;;;5024971;28;20969;-81
2022/09/11 00:51:49;;;;;;;5.90;5.60;;;16.20;1.00;;;;;;5028168;28;20480;-80
2022/09/11 00:54:20;;;;;;;6.00;5.60;;;16.20;99.90;;;;;;5029364;28;20447;-82
2022/09/11 00:56:49;;;;;;;6.00;5.60;;;16.10;99.90;;;;;;5031480;28;20452;-81
2022/09/11 00:59:20;;;;;;;5.60;5.40;;;16.20;73.30;;;;;;5029103;28;20464;-80
2022/09/11 01:01:49;;;;;;;5.63;5.53;;;16.20;91.00;;;;;;5022862;28;20507;-80
2022/09/11 01:04:18;;;;;;;5.93;5.70;;;16.20;21.40;;;;;;5032324;28;20461;-79
2022/09/11 01:06:48;;;;;;;5.33;5.00;;;16.30;1.00;;;;;;5030468;28;20566;-80
2022/09/11 01:09:16;;;;;;;5.57;5.30;;;16.00;99.90;;;;;;5032044;28;20454;-80
2022/09/11 01:11:51;;;;;;;5.50;5.17;;;16.10;99.90;;;;;;5033286;28;20465;-81
2022/09/11 01:14:42;;;;;;;5.63;5.40;;;16.10;99.90;;;;;;5032207;28;20450;-81
2022/09/11 01:17:21;;;;;;;5.50;5.30;;;16.20;99.90;;;;;;5019129;28;20474;-80
2022/09/11 01:20:21;;;;;;;5.40;5.20;;;16.10;99.90;;;;;;5032131;28;21036;-79
2022/09/11 01:23:25;;;;;;;5.40;5.20;;;16.10;99.90;;;;;;5025208;28;20479;-81
2022/09/11 01:26:10;;;;;;;5.60;5.30;;;16.10;99.90;;;;;;5035682;28;20544;-80
2022/09/11 01:28:45;;;;;;;5.90;5.70;;;16.20;99.90;;;;;;5031115;28;21053;-80
2022/09/11 01:31:19;;;;;;;6.20;6.00;;;16.30;99.90;;;;;;5027763;28;20506;-79
2022/09/11 01:33:56;;;;;;;6.10;5.90;;;16.30;99.90;;;;;;5031899;28;20451;-80
2022/09/11 01:36:30;;;;;;;5.70;5.50;;;16.20;1.00;;;;;;5034477;28;20547;-79
2022/09/11 01:39:01;;;;;;;6.33;5.93;;;16.20;1.00;;;;;;5026889;28;20463;-80
2022/09/11 01:41:34;;;;;;;5.90;5.67;;;16.20;1.00;;;;;;5031262;28;20524;-81
2022/09/11 01:44:07;;;;;;;6.13;5.93;;;16.20;1.00;;;;;;5033197;28;20884;-80
2022/09/11 01:46:40;;;;;;;6.50;6.00;;;16.20;1.00;;;;;;5032048;28;20524;-79
2022/09/11 01:49:14;;;;;;;6.00;5.90;;;16.30;99.90;;;;;;5029059;28;20459;-79
2022/09/11 01:51:42;;;;;;;5.83;5.73;;;16.30;99.90;;;;;;5029205;28;20909;-79
2022/09/11 01:54:15;;;;;;;6.67;6.47;;;16.30;99.90;;;;;;5028238;28;20505;-78
2022/09/11 01:56:47;;;;;;;7.03;6.70;;;16.20;1.00;;;;;;5027538;28;20478;-79
2022/09/11 01:59:20;;;;;;;6.07;5.87;;;16.20;1.00;;;;;;5034920;28;20539;-82
2022/09/11 02:01:54;;;;;;;6.00;5.70;;;16.20;1.00;;;;;;5037199;28;20502;-79
2022/09/11 02:04:28;;;;;;;5.77;5.57;;;16.20;1.00;;;;;;5029711;28;20533;-80
2022/09/11 02:07:02;;;;;;;5.80;5.50;;;16.00;1.00;;;;;;5032875;28;20471;-79
2022/09/11 02:09:33;;;;;;;5.80;5.67;;;16.10;1.00;;;;;;5030677;28;20459;-80
2022/09/11 02:12:05;;;;;;;6.40;6.20;;;16.10;1.00;;;;;;5027951;28;20540;-79
2022/09/11 02:14:39;;;;;;;6.40;6.10;;;16.20;1.00;;;;;;5035996;28;20454;-80
2022/09/11 02:17:18;;;;;;;5.70;5.50;;;16.20;1.00;;;;;;5032507;28;20484;-81
2022/09/11 02:19:48;;;;;;;5.70;5.50;;;16.10;1.00;;;;;;5022185;28;20464;-83
2022/09/11 02:22:16;;;;;;;6.17;5.93;;;16.10;1.00;;;;;;5032864;28;20487;-80
2022/09/11 02:24:44;;;;;;;5.60;5.40;;;16.10;21.20;;;;;;5028921;28;20456;-80
2022/09/11 02:27:16;;;;;;;6.20;6.00;;;16.10;1.00;;;;;;5032977;28;20487;-79
2022/09/11 02:29:46;;;;;;;5.90;5.70;;;16.00;1.00;;;;;;5029896;28;20464;-80
2022/09/11 02:32:14;;;;;;;5.90;5.70;;;16.10;12.90;;;;;;5032402;28;20470;-80
2022/09/11 02:34:44;;;;;;;6.17;5.87;;;16.00;99.90;;;;;;5037299;28;20462;-80
2022/09/11 02:37:24;;;;;;;6.13;5.90;;;16.20;1.00;;;;;;5027891;28;20443;-80
2022/09/11 02:40:19;;;;;;;6.40;6.03;;;16.20;1.00;;;;;;5030725;28;20450;-80
2022/09/11 02:43:04;;;;;;;5.60;5.30;;;16.00;99.90;;;;;;5028784;28;20485;-81
2022/09/11 02:45:43;;;;;;;5.97;5.67;;;16.10;99.90;;;;;;5035810;28;20460;-81
2022/09/11 02:48:35;;;;;;;6.17;5.87;;;16.10;78.00;;;;;;5035841;28;20517;-79
2022/09/11 02:51:16;;;;;;;6.07;5.90;;;16.20;99.90;;;;;;5033698;28;20458;-80
2022/09/11 02:53:52;;;;;;;6.10;5.90;;;16.20;75.30;;;;;;5029549;28;20454;-79
2022/09/11 02:56:28;;;;;;;6.67;6.23;;;16.10;99.00;;;;;;5024050;28;20554;-78
2022/09/11 02:59:00;;;;;;;6.20;6.00;;;16.10;99.90;;;;;;5028530;28;20543;-79
2022/09/11 03:01:30;;;;;;;6.13;5.93;;;16.10;99.90;;;;;;5032402;28;20501;-79
2022/09/11 03:03:58;;;;;;;6.30;6.13;;;16.10;99.90;;;;;;5035433;28;20549;-79
2022/09/11 03:06:27;;;;;;;6.00;5.90;;;16.20;99.90;;;;;;5030273;28;20463;-79
2022/09/11 03:08:55;;;;;;;6.53;6.33;;;16.10;96.70;;;;;;5032175;28;21046;-79
2022/09/11 03:11:23;;;;;;;6.57;6.37;;;16.10;99.90;;;;;;5029215;28;20477;-81
2022/09/11 03:13:51;;;;;;;6.80;6.50;;;16.10;99.90;;;;;;5030432;28;20447;-80
2022/09/11 03:16:20;;;;;;;6.20;5.90;;;16.00;99.90;;;;;;5033889;28;20460;-81
2022/09/11 03:18:50;;;;;;;6.10;5.90;;;16.10;99.90;;;;;;5036762;28;20529;-80
2022/09/11 03:21:18;;;;;;;6.30;6.17;;;16.10;99.90;;;;;;5028641;28;20474;-80
2022/09/11 03:23:46;;;;;;;6.60;6.30;;;16.00;99.90;;;;;;5030919;28;22431;-79
2022/09/11 03:26:16;;;;;;;6.67;6.30;;;16.10;99.90;;;;;;5031266;28;20497;-81
2022/09/11 03:28:45;;;;;;;6.00;5.90;;;16.00;99.90;;;;;;5032496;28;20596;-80
2022/09/11 03:31:13;;;;;;;6.90;6.70;;;16.00;99.90;;;;;;5031893;28;20474;-80
2022/09/11 03:33:42;;;;;;;7.00;6.80;;;16.10;99.90;;;;;;5031439;28;20551;-81
2022/09/11 03:36:12;;;;;;;6.80;6.60;;;16.10;99.90;;;;;;5033276;28;20468;-81
2022/09/11 03:38:40;;;;;;;6.70;6.50;;;16.20;99.90;;;;;;5028807;28;20537;-81
2022/09/11 03:41:09;;;;;;;6.63;6.43;;;16.20;99.90;;;;;;5028252;28;20467;-81
2022/09/11 03:43:37;;;;;;;6.80;6.40;;;16.20;99.90;;;;;;5030742;28;20491;-79
2022/09/11 03:46:07;;;;;;;6.53;6.33;;;16.20;99.90;;;;;;5031630;28;20472;-80
2022/09/11 03:48:36;;;;;;;6.60;6.40;;;16.10;99.90;;;;;;5030765;28;20485;-79
2022/09/11 03:51:04;;;;;;;6.73;6.50;;;16.10;99.90;;;;;;5031014;28;20456;-79
2022/09/11 03:53:34;;;;;;;6.80;6.60;;;16.10;99.90;;;;;;5029005;28;20459;-80
2022/09/11 03:56:05;;;;;;;6.93;6.47;;;16.10;99.90;;;;;;5036716;28;20456;-80
2022/09/11 03:58:33;;;;;;;6.70;6.50;;;16.00;99.90;;;;;;5031467;28;20457;-81
2022/09/11 04:01:01;;;;;;;6.70;6.40;;;16.00;99.90;;;;;;5023252;28;20460;-81
2022/09/11 04:03:30;;;;;;;6.30;6.10;;;15.90;99.90;;;;;;5029192;28;20462;-80
2022/09/11 04:06:00;;;;;;;8.47;8.00;;;16.00;99.90;;;;;;5030616;28;20566;-81
2022/09/11 04:08:32;;;;;;;7.07;6.77;;;16.00;99.90;;;;;;5029246;28;20530;-80
2022/09/11 04:11:03;;;;;;;7.60;7.30;;;16.00;99.90;;;;;;5029351;28;20514;-80
2022/09/11 04:13:33;;;;;;;7.03;6.93;;;16.10;99.90;;;;;;5029601;28;20468;-80
2022/09/11 04:16:04;;;;;;;6.90;6.70;;;16.10;99.90;;;;;;5036864;28;20459;-80
2022/09/11 04:18:34;;;;;;;7.37;7.10;;;16.20;99.90;;;;;;5033417;28;20980;-79
2022/09/11 04:21:04;;;;;;;7.50;7.10;;;16.20;99.90;;;;;;5033229;28;20460;-80
2022/09/11 04:23:32;;;;;;;7.50;7.30;;;16.10;99.90;;;;;;5034733;28;20460;-81
2022/09/11 04:26:03;;;;;;;7.37;7.17;;;16.20;99.90;;;;;;5028454;28;20550;-79
2022/09/11 04:28:32;;;;;;;7.20;7.00;;;16.10;99.90;;;;;;5026916;28;21016;-79
2022/09/11 04:31:03;;;;;;;7.30;7.10;;;16.20;99.90;;;;;;5030414;28;20458;-78
2022/09/11 04:33:31;;;;;;;6.70;6.50;;;16.20;99.90;;;;;;5031689;28;20475;-79
2022/09/11 04:36:04;;;;;;;7.60;7.30;;;16.20;99.90;;;;;;5025748;28;20466;-79
2022/09/11 04:38:33;;;;;;;7.80;7.50;;;16.10;99.90;;;;;;5032782;28;20508;-79
2022/09/11 04:41:05;;;;;;;7.73;7.37;;;16.10;99.90;;;;;;5031749;28;20554;-78
2022/09/11 04:43:34;;;;;;;7.87;7.47;;;16.10;99.90;;;;;;5032970;28;20454;-80
2022/09/11 04:46:04;;;;;;;7.73;7.40;;;16.10;99.90;;;;;;5045182;28;20460;-79
2022/09/11 04:48:33;;;;;;;7.47;7.20;;;16.20;99.90;;;;;;5032593;28;20474;-80
2022/09/11 04:51:02;;;;;;;7.93;7.63;;;16.20;99.90;;;;;;5026560;28;20482;-81
2022/09/11 04:53:31;;;;;;;7.23;7.03;;;16.20;99.90;;;;;;5031948;28;20474;-78
2022/09/11 04:56:06;;;;;;;7.50;7.30;;;16.00;99.90;;;;;;5035058;28;20470;-79
2022/09/11 04:58:34;;;;;;;7.77;7.50;;;16.00;99.90;;;;;;5036925;28;20485;-80
2022/09/11 05:01:06;;;;;;;8.70;8.13;;;16.00;99.90;;;;;;5031930;28;20463;-80
2022/09/11 05:03:35;;;;;;;7.80;7.50;;;16.10;99.90;;;;;;5033892;28;20450;-80
2022/09/11 05:06:07;;;;;;;8.13;7.83;;;15.90;1.00;;;;;;5032694;28;20523;-79
2022/09/11 05:08:36;;;;;;;7.80;7.60;;;15.90;1.00;;;;;;5032159;28;21009;-79
2022/09/11 05:11:06;;;;;;;7.93;7.63;;;15.80;1.00;;;;;;5031432;28;20486;-80
2022/09/11 05:13:34;;;;;;;7.97;7.67;;;16.00;1.00;;;;;;5026738;28;20471;-82
2022/09/11 05:16:04;;;;;;;8.43;7.93;;;16.10;99.90;;;;;;5032113;28;20581;-80
2022/09/11 05:18:32;;;;;;;7.97;7.63;;;16.10;99.90;;;;;;5036265;28;20995;-81
2022/09/11 05:21:01;;;;;;;8.27;7.97;;;16.00;1.00;;;;;;5032563;28;20551;-82
2022/09/11 05:23:30;;;;;;;8.60;8.30;;;16.10;1.00;;;;;;5032941;28;21047;-81
2022/09/11 05:25:59;;;;;;;9.03;8.53;;;16.00;1.00;;;;;;5033392;28;20509;-80
2022/09/11 05:28:29;;;;;;;7.80;7.60;;;16.00;1.00;;;;;;5032124;28;20474;-79
2022/09/11 05:30:58;;;;;;;8.43;8.03;;;16.10;1.00;;;;;;5038184;28;20457;-79
2022/09/11 05:33:27;;;;;;;8.30;8.00;;;16.10;99.90;;;;;;5032892;28;20551;-79
2022/09/11 05:36:03;;;;;;;8.63;8.23;;;16.00;1.00;;;;;;5028236;28;20573;-78
2022/09/11 05:38:32;;;;;;;8.97;8.27;;;15.90;1.00;;;;;;5029333;28;20951;-78
2022/09/11 05:41:00;;;;;;;8.80;8.50;;;15.90;1.00;;;;;;5032273;28;20463;-78
2022/09/11 05:43:29;;;;;;;8.37;8.10;;;16.00;1.00;;;;;;5029618;28;20449;-78
2022/09/11 05:45:58;;;;;;;8.30;7.93;;;16.00;1.00;;;;;;5029232;28;21028;-78
2022/09/11 05:48:28;;;;;;;8.60;8.30;;;16.00;1.00;;;;;;5032325;28;20495;-78
2022/09/11 05:50:58;;;;;;;8.40;8.20;;;16.10;1.00;;;;;;5029185;28;20490;-78
2022/09/11 05:53:27;;;;;;;8.47;8.17;;;16.00;1.00;;;;;;5022195;28;20464;-78
2022/09/11 05:55:56;;;;;;;9.03;8.73;;;16.10;1.00;;;;;;5030756;28;21020;-79
2022/09/11 05:58:24;;;;;;;8.93;8.53;;;16.00;1.00;;;;;;5027738;28;20562;-78
2022/09/11 06:01:03;;;;;;;8.80;8.50;;;16.00;1.00;;;;;;5030827;28;20483;-76
2022/09/11 06:03:32;;;;;;;8.97;8.67;;;16.10;1.00;;;;;;5031113;28;20473;-79
2022/09/11 06:06:01;;;;;;;8.50;8.20;;;16.10;1.00;;;;;;5025546;28;20463;-84
2022/09/11 06:08:29;;;;;;;8.73;8.43;;;16.00;1.00;;;;;;5030127;28;20483;-82
2022/09/11 06:10:58;;;;;;;9.53;9.17;;;16.10;1.00;;;;;;5031825;28;20966;-83
2022/09/11 06:13:29;;;;;;;9.67;9.37;;;16.10;1.00;;;;;;5031973;28;20455;-81
2022/09/11 06:15:58;;;;;;;9.10;8.60;;;16.20;1.00;;;;;;5030909;28;20952;-83
2022/09/11 06:18:27;;;;;;;8.60;8.40;;;16.20;1.00;;;;;;5028959;28;20454;-84
2022/09/11 06:20:57;;;;;;;9.33;8.93;;;16.10;1.00;;;;;;5031027;28;20462;-83
2022/09/11 06:23:25;;;;;;;8.83;8.63;;;16.10;1.00;;;;;;5033761;28;20452;-82
2022/09/11 06:25:54;;;;;;;10.23;9.53;;;16.30;1.00;;;;;;5032550;28;20509;-81
2022/09/11 06:28:22;;;;;;;10.27;9.83;;;16.30;1.00;;;;;;5029902;28;20487;-82
2022/09/11 06:30:51;;;;;;;9.70;9.20;;;16.30;1.00;;;;;;5028000;28;20494;-82
2022/09/11 06:33:21;;;;;;;9.83;9.53;;;16.30;1.00;;;;;;5035085;28;20530;-81
2022/09/11 06:35:57;;;;;;;10.30;9.87;;;16.30;1.00;;;;;;5029771;28;20460;-82
2022/09/11 06:38:26;;;;;;;9.97;9.57;;;16.40;1.00;;;;;;5030374;28;20891;-84
2022/09/11 06:40:55;;;;;;;9.60;9.17;;;16.40;99.90;;;;;;5035466;28;20472;-82
2022/09/11 06:43:23;;;;;;;10.33;9.80;;;16.40;99.90;;;;;;5027180;28;20557;-82
2022/09/11 06:45:51;;;;;;;10.43;9.83;;;16.60;99.90;;;;;;5026628;28;20484;-81
2022/09/11 06:48:21;;;;;;;11.50;10.97;;;16.60;99.90;;;;;;5032419;28;20442;-82
2022/09/11 06:50:49;;;;;;;10.50;10.00;;;16.50;99.90;;;;;;5026684;28;20976;-81
2022/09/11 06:53:17;;;;;;;11.30;10.80;;;16.50;99.90;;;;;;5030740;28;21020;-82
2022/09/11 06:55:45;;;;;;;10.87;10.47;;;16.50;99.90;;;;;;5028557;28;20452;-82
2022/09/11 06:58:14;;;;;;;11.93;11.43;;;16.50;99.90;;;;;;5029602;28;20509;-82
2022/09/11 07:00:42;;;;;;;11.23;10.63;;;16.70;99.90;;;;;;5027491;28;20446;-82
2022/09/11 07:03:11;;;;;;;11.20;10.57;;;16.60;99.90;;;;;;5034402;28;20565;-82
2022/09/11 07:05:47;;;;;;;12.00;11.40;;;16.60;99.90;;;;;;5032655;28;20834;-82
2022/09/11 07:08:16;;;;;;;11.90;11.20;;;16.70;99.90;;;;;;5034129;28;21122;-85
2022/09/11 07:10:51;;;;;;;12.23;11.57;;;16.80;99.90;;;;;;5028795;28;20546;-80
2022/09/11 07:13:19;;;;;;;12.90;12.20;;;16.80;99.90;;;;;;5029815;28;20483;-82
2022/09/11 07:15:48;;;;;;;12.60;11.90;;;16.80;99.90;;;;;;5051646;28;20455;-84
2022/09/11 07:18:17;;;;;;;12.70;11.80;;;16.80;99.90;;;;;;5038954;28;20493;-83
2022/09/11 07:20:46;;;;;;;13.80;12.97;;;17.00;99.90;;;;;;5034249;28;20444;-83
2022/09/11 07:23:15;;;;;;;12.63;12.10;;;17.00;49.20;;;;;;5030879;28;20522;-83
2022/09/11 07:25:44;;;;;;;13.20;12.33;;;17.00;99.90;;;;;;5027202;28;20508;-83
2022/09/11 07:28:13;;;;;;;12.90;12.20;;;17.10;99.90;;;;;;5032141;28;20866;-83
2022/09/11 07:30:41;;;;;;;13.57;12.93;;;17.10;99.90;;;;;;5028777;28;20515;-83
2022/09/11 07:33:10;;;;;;;13.30;12.60;;;17.10;99.90;;;;;;5031830;28;20491;-84
2022/09/11 07:35:39;;;;;;;16.23;15.33;;;17.10;32.50;;;;;;5025859;28;20452;-83
2022/09/11 07:38:09;;;;;;;15.30;14.40;;;17.20;1.00;;;;;;5030129;28;20479;-79
2022/09/11 07:40:38;;;;;;;15.30;14.50;;;17.10;99.90;;;;;;5031326;28;21034;-82
2022/09/11 07:43:09;;;;;;;15.07;14.17;;;17.20;99.90;;;;;;5030405;28;20525;-79
2022/09/11 07:45:39;;;;;;;15.73;14.53;;;17.20;99.90;;;;;;5029270;28;20479;-79
2022/09/11 07:48:08;;;;;;;14.43;13.63;;;17.20;99.90;;;;;;5031645;28;20502;-80
2022/09/11 07:50:36;;;;;;;14.90;14.10;;;17.20;99.90;;;;;;5032072;28;20530;-79
2022/09/11 07:53:05;;;;;;;14.40;13.70;;;17.20;99.90;;;;;;5033154;28;20483;-80
2022/09/11 07:55:35;;;;;;;13.50;12.60;;;17.20;1.00;;;;;;5024370;28;20496;-81
2022/09/11 07:58:04;;;;;;;14.03;13.33;;;17.20;1.00;;;;;;5031206;28;20870;-79
2022/09/11 08:00:32;;;;;;;14.40;13.60;;;17.20;99.90;;;;;;5029324;28;20514;-80
2022/09/11 08:03:04;;;;;;;14.30;13.40;;;17.30;1.00;;;;;;5031814;28;20471;-80
2022/09/11 08:05:32;;;;;;;13.80;13.17;;;17.30;1.00;;;;;;5032067;28;20473;-81
2022/09/11 08:08:00;;;;;;;14.13;13.43;;;17.40;99.90;;;;;;5031983;28;20954;-80
2022/09/11 08:10:28;;;;;;;14.37;13.17;;;17.40;1.00;;;;;;5029938;28;20562;-79
2022/09/11 08:12:58;;;;;;;14.30;13.40;;;17.40;99.90;;;;;;5032750;28;20486;-80
2022/09/11 08:15:27;;;;;;;14.53;13.73;;;17.50;44.60;;;;;;5034848;28;20452;-80
2022/09/11 08:17:55;;;;;;;14.40;13.60;;;17.40;1.00;;;;;;5032691;28;21134;-82
2022/09/11 08:20:23;;;;;;;13.43;12.60;;;17.40;99.90;;;;;;5033545;28;20455;-81
2022/09/11 08:22:52;;;;;;;14.20;13.30;;;17.50;99.90;;;;;;5035076;28;20483;-78
2022/09/11 08:25:20;;;;;;;13.97;13.00;;;17.50;1.00;;;;;;5034066;28;20494;-80
2022/09/11 08:27:48;;;;;;;14.83;13.97;;;17.50;15.10;;;;;;5034357;28;20467;-80
2022/09/11 08:30:17;;;;;;;14.43;13.53;;;17.50;99.90;;;;;;5032196;28;20475;-79
2022/09/11 08:32:46;;;;;;;13.77;12.90;;;17.50;87.10;;;;;;5034082;28;20505;-80
2022/09/11 08:35:14;;;;;;;15.07;14.27;;;17.50;99.90;;;;;;5030782;28;20594;-79
2022/09/11 08:37:42;;;;;;;15.50;14.70;;;17.60;99.90;;;;;;5029060;28;20885;-80
2022/09/11 08:40:11;;;;;;;14.20;13.30;;;17.70;3.40;;;;;;5033937;28;20865;-79
2022/09/11 08:42:41;;;;;;;14.30;13.57;;;17.80;99.90;;;;;;5034474;28;20480;-79
2022/09/11 08:45:14;;;;;;;15.30;14.30;;;18.10;1.00;;;;;;5031657;28;21249;-80
2022/09/11 08:47:51;;;;;;;15.43;14.73;;;18.20;99.90;;;;;;5033123;28;20555;-79
2022/09/11 08:50:24;;;;;;;15.50;14.70;;;18.30;1.00;;;;;;5032707;28;20507;-79
2022/09/11 08:52:54;;;;;;;15.00;14.07;;;18.20;1.00;;;;;;5032636;28;20812;-79
2022/09/11 08:55:28;;;;;;;15.07;14.17;;;18.30;99.90;;;;;;5033102;28;21178;-79
2022/09/11 08:58:02;;;;;;;14.50;13.80;;;18.30;1.00;;;;;;5033133;28;20454;-80
2022/09/11 09:00:39;;;;;;;16.13;15.33;;;18.50;1.00;;;;;;5031620;28;20455;-81
2022/09/11 09:03:38;;;;;;;15.67;14.87;;;18.60;1.00;;;;;;5030736;28;20471;-80
2022/09/11 09:06:28;;;;;;;14.20;13.57;;;18.60;1.00;;;;;;5020236;28;21030;-81
2022/09/11 09:09:08;;;;;;;15.30;14.53;;;18.80;99.90;;;;;;5025805;28;20456;-79
2022/09/11 09:11:48;;;;;;;15.20;14.30;;;18.90;1.00;;;;;;5032058;28;20519;-81
2022/09/11 09:14:39;;;;;;;15.10;14.40;;;19.00;99.90;;;;;;5032751;28;21059;-81
2022/09/11 09:17:13;;;;;;;14.73;13.93;;;19.10;1.00;;;;;;5032614;28;20484;-79
2022/09/11 09:19:49;;;;;;;15.17;14.10;;;19.10;1.00;;;;;;5023276;28;20525;-80
2022/09/11 09:22:24;;;;;;;14.57;13.77;;;19.20;1.00;;;;;;5031533;28;20480;-81
2022/09/11 09:24:59;;;;;;;15.83;14.93;;;19.20;1.00;;;;;;5031564;28;20460;-81
2022/09/11 09:27:34;;;;;;;14.60;13.80;;;19.20;99.90;;;;;;5032195;28;20959;-81
2022/09/11 09:30:06;;;;;;;15.40;14.27;;;19.10;99.90;;;;;;5031113;28;20468;-80
2022/09/11 09:32:42;;;;;;;14.40;13.60;;;18.90;1.00;;;;;;5030117;28;20581;-80
2022/09/11 09:35:16;;;;;;;14.10;13.40;;;19.00;99.90;;;;;;5030974;28;20451;-81
2022/09/11 09:37:46;;;;;;;13.37;12.67;;;18.70;1.00;;;;;;5029314;28;20563;-80
2022/09/11 09:40:16;;;;;;;13.33;12.57;;;18.70;1.00;;;;;;5026673;28;20455;-80
2022/09/11 09:43:13;;;;;;;13.83;13.03;;;18.70;1.00;;;;;;5031105;28;20491;-81
2022/09/11 09:46:05;;;;;;;12.87;12.10;;;18.60;1.00;;;;;;5027946;28;20448;-80
2022/09/11 09:48:39;;;;;;;14.43;13.60;;;18.90;99.90;;;;;;5031362;28;20521;-81
2022/09/11 09:51:14;;;;;;;13.80;13.10;;;19.40;99.90;;;;;;5029685;28;20511;-79
2022/09/11 09:53:51;;;;;;;14.00;13.20;;;19.70;1.00;;;;;;5025876;28;20476;-79
2022/09/11 09:56:24;;;;;;;13.33;12.57;;;19.70;99.90;;;;;;5028303;28;20551;-80
2022/09/11 09:59:02;;;;;;;13.03;12.33;;;19.50;51.60;;;;;;5030780;28;20449;-79
2022/09/11 10:01:48;;;;;;;13.30;12.70;;;19.30;99.90;;;;;;5024203;28;20506;-79
2022/09/11 10:04:22;;;;;;;13.00;12.30;;;19.30;99.90;;;;;;5017655;28;20456;-80
2022/09/11 10:06:54;;;;;;;12.20;11.60;;;19.40;99.90;;;;;;5030902;28;20488;-80
2022/09/11 10:09:27;;;;;;;12.73;12.13;;;19.70;99.90;;;;;;5029709;28;20488;-80
2022/09/11 10:12:02;;;;;;;11.20;10.70;;;19.80;1.00;;;;;;5030314;28;20491;-80
2022/09/11 10:14:34;;;;;;;10.60;10.30;;;20.10;1.00;;;;;;5030884;28;20971;-80
2022/09/11 10:17:30;;;;;;;10.80;10.40;;;20.30;1.00;;;;;;5030832;28;20946;-80
2022/09/11 10:20:14;;;;;;;10.80;10.20;;;20.30;1.00;;;;;;5030758;28;20855;-81
2022/09/11 10:22:44;;;;;;;11.80;11.00;;;20.30;1.00;;;;;;5031984;28;20483;-81
2022/09/11 10:25:17;;;;;;;12.00;11.20;;;20.40;1.00;;;;;;5028238;28;21041;-80
2022/09/11 10:28:01;;;;;;;11.10;10.60;;;20.70;1.00;;;;;;5022586;28;20457;-81
2022/09/11 10:30:37;;;;;;;11.53;10.93;;;20.80;1.00;;;;;;5030167;28;20512;-81
2022/09/11 10:33:17;;;;;;;10.30;9.90;;;21.20;1.00;;;;;;5031208;28;20468;-81
2022/09/11 10:35:54;;;;;;;10.23;9.40;;;21.10;99.90;;;;;;5031086;28;20460;-79
2022/09/11 10:38:31;;;;;;;10.10;9.70;;;21.10;99.90;;;;;;5030876;28;20539;-81
2022/09/11 10:41:10;;;;;;;10.30;9.73;;;20.80;99.90;;;;;;5028046;28;20453;-81
2022/09/11 10:43:49;;;;;;;10.47;9.87;;;20.60;99.90;;;;;;5024890;28;20469;-80
2022/09/11 10:46:30;;;;;;;10.50;10.00;;;20.50;99.90;;;;;;5029754;28;20997;-80
2022/09/11 10:49:24;;;;;;;10.50;10.00;;;20.70;99.90;;;;;;5028899;28;20455;-79
2022/09/11 10:52:01;;;;;;;10.43;9.93;;;21.00;99.90;;;;;;5028232;28;20541;-80
2022/09/11 10:54:43;;;;;;;11.07;10.53;;;21.10;99.90;;;;;;5021171;28;20467;-81
2022/09/11 10:57:18;;;;;;;9.40;9.00;;;21.40;99.90;;;;;;5029481;28;20466;-81
2022/09/11 10:59:58;;;;;;;11.27;10.70;;;21.60;99.90;;;;;;5028747;28;20547;-81
2022/09/11 11:02:31;;;;;;;9.37;8.97;;;21.50;99.90;;;;;;5030385;28;20481;-82
2022/09/11 11:05:04;;;;;;;8.30;7.93;;;21.50;99.90;;;;;;5029972;28;20459;-80
2022/09/11 11:08:08;;;;;;;8.60;8.27;;;21.70;99.90;;;;;;5028945;28;20444;-80
2022/09/11 11:10:47;;;;;;;8.57;8.17;;;21.60;99.90;;;;;;5007103;28;20462;-81
2022/09/11 11:13:31;;;;;;;8.90;8.50;;;21.80;99.90;;;;;;5026582;28;20514;-80
2022/09/11 11:16:09;;;;;;;7.70;7.30;;;22.00;99.90;;;;;;5029498;28;21344;-80
2022/09/11 11:19:00;;;;;;;9.30;8.80;;;22.00;99.90;;;;;;5029282;28;20452;-81
2022/09/11 11:21:41;;;;;;;7.87;7.53;;;22.20;99.90;;;;;;5026499;28;21270;-80
2022/09/11 11:24:31;;;;;;;8.03;7.47;;;22.30;99.90;;;;;;5029717;28;20439;-81
2022/09/11 11:27:19;;;;;;;7.47;7.07;;;22.30;99.90;;;;;;5018526;28;20895;-79
2022/09/11 11:30:08;;;;;;;8.40;7.90;;;22.30;99.90;;;;;;5028814;28;20459;-82
2022/09/11 11:32:48;;;;;;;7.83;7.50;;;22.00;99.90;;;;;;5024122;28;20488;-81
2022/09/11 11:35:23;;;;;;;7.57;7.27;;;21.80;99.90;;;;;;5024307;28;20461;-80
2022/09/11 11:38:00;;;;;;;8.00;7.60;;;22.00;99.90;;;;;;5030380;28;20510;-81
2022/09/11 11:40:33;;;;;;;7.90;7.50;;;22.00;99.90;;;;;;5029800;28;20465;-81
2022/09/11 11:43:05;;;;;;;7.50;7.20;;;22.00;99.90;;;;;;5027605;28;20829;-80
2022/09/11 11:45:39;;;;;;;7.53;7.23;;;22.10;99.90;;;;;;5029047;28;20509;-81
2022/09/11 11:48:14;;;;;;;7.63;7.33;;;21.90;99.90;;;;;;5019775;28;20452;-79
2022/09/11 11:50:44;;;;;;;7.93;7.23;;;21.70;99.90;;;;;;5023910;28;20539;-81
2022/09/11 11:53:20;;;;;;;6.70;6.40;;;21.80;99.90;;;;;;5028436;28;21054;-81
2022/09/11 11:56:00;;;;;;;6.20;6.00;;;21.90;99.90;;;;;;5027136;28;20529;-79
2022/09/11 11:58:40;;;;;;;6.03;5.83;;;22.00;99.90;;;;;;5028502;28;20463;-81
2022/09/11 12:01:18;;;;;;;5.77;5.43;;;22.00;99.90;;;;;;5027148;28;20546;-81
2022/09/11 12:03:52;;;;;;;5.73;5.50;;;22.20;99.90;;;;;;5028459;28;20486;-81
2022/09/11 12:06:21;;;;;;;5.90;5.60;;;22.10;99.90;;;;;;5028151;28;20537;-82
2022/09/11 12:08:50;;;;;;;6.20;5.80;;;22.20;99.90;;;;;;5028007;28;20455;-81
2022/09/11 12:11:27;;;;;;;6.00;5.70;;;22.30;99.90;;;;;;5025456;28;20577;-80
2022/09/11 12:13:55;;;;;;;6.50;6.10;;;22.50;99.90;;;;;;5028150;28;20455;-81
2022/09/11 12:16:30;;;;;;;6.13;5.83;;;22.40;99.90;;;;;;5025133;28;20501;-80
2022/09/11 12:19:13;;;;;;;6.23;5.90;;;22.40;99.90;;;;;;5028437;28;20962;-81
2022/09/11 12:22:04;;;;;;;5.10;4.90;;;22.40;99.90;;;;;;5027858;28;20985;-81
2022/09/11 12:24:58;;;;;;;6.03;5.60;;;22.30;99.90;;;;;;5026968;28;20459;-81
2022/09/11 12:27:52;;;;;;;6.60;6.30;;;22.30;99.90;;;;;;5027534;28;21019;-81
2022/09/11 12:30:24;;;;;;;6.33;6.03;;;22.30;99.90;;;;;;5027680;28;21115;-80
2022/09/11 12:32:54;;;;;;;7.13;6.67;;;22.20;99.90;;;;;;5026374;28;20836;-81
2022/09/11 12:35:30;;;;;;;8.00;7.40;;;22.10;99.90;;;;;;5027823;28;20465;-81
2022/09/11 12:38:04;;;;;;;7.70;7.07;;;22.00;99.90;;;;;;5027280;28;20466;-81
2022/09/11 12:40:38;;;;;;;6.83;6.53;;;21.80;99.90;;;;;;5026340;28;20469;-80
2022/09/11 12:43:27;;;;;;;6.73;6.53;;;21.70;99.90;;;;;;5027287;28;20554;-81
2022/09/11 12:45:56;;;;;;;6.70;6.40;;;21.50;99.90;;;;;;5027881;28;20447;-81
2022/09/11 12:48:37;;;;;;;6.93;6.53;;;21.50;99.90;;;;;;5027161;28;20485;-81
2022/09/11 12:51:18;;;;;;;6.33;6.03;;;21.40;99.90;;;;;;5026280;28;20477;-81
2022/09/11 12:53:50;;;;;;;7.10;6.60;;;21.40;99.90;;;;;;5027952;28;20502;-81
2022/09/11 12:56:21;;;;;;;6.50;6.30;;;21.50;99.90;;;;;;5027571;28;20464;-81
2022/09/11 12:58:55;;;;;;;7.37;6.77;;;21.20;99.90;;;;;;5030564;28;20460;-81
2022/09/11 13:01:29;;;;;;;7.53;7.13;;;21.30;99.90;;;;;;5017111;28;20486;-80
2022/09/11 13:04:03;;;;;;;7.13;6.73;;;21.30;99.90;;;;;;5027437;28;20452;-81
2022/09/11 13:06:43;;;;;;;6.20;5.90;;;21.30;99.90;;;;;;5025153;28;20468;-81
2022/09/11 13:09:21;;;;;;;6.17;5.97;;;21.20;99.90;;;;;;5028367;28;20452;-81
2022/09/11 13:11:52;;;;;;;7.60;7.20;;;21.40;99.90;;;;;;5029660;28;20543;-82
2022/09/11 13:14:47;;;;;;;7.60;7.20;;;21.50;99.90;;;;;;5028939;28;20457;-80